createdAt,value
2022-09-17T00:01:56.099Z,24.34
2022-09-17T00:07:00.414Z,24.33
2022-09-17T00:12:04.235Z,24.37
2022-09-17T00:17:08.032Z,24.35
2022-09-17T00:22:11.437Z,24.33
2022-09-17T00:27:14.874Z,24.30
2022-09-17T00:32:18.587Z,24.28
2022-09-17T00:37:23.249Z,24.30
2022-09-17T00:42:26.567Z,24.32
2022-09-17T00:47:38.991Z,24.35
2022-09-17T00:52:55.201Z,24.37
2022-09-17T00:58:01.847Z,24.40
2022-09-17T01:03:06.318Z,24.41
2022-09-17T01:08:25.237Z,24.42
2022-09-17T01:13:53.106Z,24.37
2022-09-17T01:19:05.596Z,24.31
2022-09-17T01:24:35.426Z,24.27
2022-09-17T01:29:41.731Z,24.21
2022-09-17T01:35:03.976Z,24.16
2022-09-17T01:40:42.835Z,24.13
2022-09-17T01:45:57.823Z,24.13
2022-09-17T01:51:14.958Z,24.11
2022-09-17T01:56:22.979Z,24.04
2022-09-17T02:01:30.123Z,24.00
2022-09-17T02:06:38.790Z,23.97
2022-09-17T02:11:46.324Z,23.94
2022-09-17T02:16:57.521Z,23.91
2022-09-17T02:22:33.156Z,23.91
2022-09-17T02:27:48.094Z,23.92
2022-09-17T02:32:51.671Z,23.93
2022-09-17T02:37:55.537Z,23.95
2022-09-17T02:43:10.799Z,23.99
2022-09-17T02:48:34.091Z,23.95
2022-09-17T02:53:49.303Z,23.97
2022-09-17T02:59:31.586Z,24.01
2022-09-17T03:04:37.434Z,24.03
2022-09-17T03:09:41.670Z,24.09
2022-09-17T03:14:48.137Z,24.11
2022-09-17T03:19:55.215Z,24.10
2022-09-17T03:24:58.795Z,24.11
2022-09-17T03:30:02.237Z,24.11
2022-09-17T03:35:10.646Z,24.10
2022-09-17T03:40:18.607Z,24.12
2022-09-17T03:45:22.302Z,24.15
2022-09-17T03:50:25.875Z,24.14
2022-09-17T03:55:29.632Z,24.19
2022-09-17T04:00:33.825Z,24.26
2022-09-17T04:05:37.482Z,24.33
2022-09-17T04:10:41.477Z,24.37
2022-09-17T04:15:46.263Z,24.40
2022-09-17T04:20:49.670Z,24.39
2022-09-17T04:25:53.098Z,24.45
2022-09-17T04:30:56.980Z,24.53
2022-09-17T04:36:00.495Z,24.62
2022-09-17T04:41:03.837Z,24.68
2022-09-17T04:46:07.668Z,24.73
2022-09-17T04:51:11.192Z,25.71
2022-09-17T04:56:14.502Z,25.88
2022-09-17T05:01:18.160Z,25.66
2022-09-17T05:06:22.131Z,25.94
2022-09-17T05:11:25.945Z,26.04
2022-09-17T05:16:29.613Z,26.20
2022-09-17T05:21:33.746Z,26.30
2022-09-17T05:26:37.099Z,26.35
2022-09-17T05:31:41.032Z,26.21
2022-09-17T05:36:44.725Z,26.25
2022-09-17T05:41:47.968Z,26.28
2022-09-17T05:46:53.516Z,26.23
2022-09-17T05:51:56.834Z,26.12
2022-09-17T05:57:01.151Z,26.07
2022-09-17T06:02:05.628Z,26.09
2022-09-17T06:07:09.563Z,26.25
2022-09-17T06:12:13.059Z,26.47
2022-09-17T06:17:21.999Z,26.48
2022-09-17T06:22:25.668Z,26.45
2022-09-17T06:27:33.206Z,26.50
2022-09-17T06:32:36.713Z,26.62
2022-09-17T06:37:40.158Z,26.78
2022-09-17T06:42:50.981Z,26.82
2022-09-17T06:47:54.472Z,26.85
2022-09-17T06:52:57.893Z,26.87
2022-09-17T06:58:01.279Z,26.91
2022-09-17T07:03:04.845Z,26.92
2022-09-17T07:08:08.223Z,26.98
2022-09-17T07:13:11.695Z,26.98
2022-09-17T07:18:15.268Z,27.05
2022-09-17T07:23:18.783Z,27.09
2022-09-17T07:28:22.955Z,27.22
2022-09-17T07:33:28.123Z,27.35
2022-09-17T07:38:32.547Z,27.48
2022-09-17T07:43:37.321Z,27.64
2022-09-17T07:48:40.991Z,27.83
2022-09-17T07:53:45.137Z,28.01
2022-09-17T07:58:49.358Z,28.20
2022-09-17T08:03:54.522Z,28.34
2022-09-17T08:09:01.402Z,28.55
2022-09-17T08:14:05.035Z,28.74
2022-09-17T08:19:08.768Z,28.92
2022-09-17T08:24:12.271Z,29.09
2022-09-17T08:29:16.119Z,29.15
2022-09-17T08:34:19.571Z,29.11
2022-09-17T08:39:22.804Z,29.14
2022-09-17T08:44:41.605Z,29.12
2022-09-17T08:49:51.034Z,29.06
2022-09-17T08:55:23.694Z,29.11
2022-09-17T09:00:35.668Z,29.15
2022-09-17T09:05:47.463Z,29.08
2022-09-17T09:10:57.777Z,29.08
2022-09-17T09:16:06.004Z,29.03
2022-09-17T09:21:25.738Z,29.10
2022-09-17T09:26:43.828Z,29.10
2022-09-17T09:32:02.224Z,29.10
2022-09-17T09:37:26.199Z,29.11
2022-09-17T09:42:33.289Z,29.12
2022-09-17T09:48:05.700Z,29.17
2022-09-17T09:53:15.029Z,29.26
2022-09-17T09:58:40.599Z,29.32
2022-09-17T10:03:49.029Z,29.26
2022-09-17T10:08:55.225Z,29.29
2022-09-17T10:14:26.256Z,29.25
2022-09-17T10:19:33.565Z,29.13
2022-09-17T10:24:39.443Z,29.08
2022-09-17T10:29:47.902Z,29.03
2022-09-17T10:35:25.788Z,29.04
2022-09-17T10:40:32.467Z,29.00
2022-09-17T10:45:39.580Z,29.03
2022-09-17T10:50:49.775Z,28.96
2022-09-17T10:55:56.412Z,28.97
2022-09-17T11:01:11.938Z,28.91
2022-09-17T11:06:26.904Z,28.84
2022-09-17T11:11:41.925Z,28.81
2022-09-17T11:16:52.268Z,28.82
2022-09-17T11:22:06.462Z,28.71
2022-09-17T11:27:35.906Z,28.75
2022-09-17T11:32:55.375Z,28.78
2022-09-17T11:38:13.862Z,28.79
2022-09-17T11:43:36.263Z,28.86
2022-09-17T11:48:56.060Z,28.76
2022-09-17T11:54:08.812Z,28.72
2022-09-17T11:59:39.167Z,28.80
2022-09-17T12:04:49.955Z,28.73
2022-09-17T12:10:14.694Z,28.57
2022-09-17T12:15:25.322Z,28.45
2022-09-17T12:20:36.886Z,28.34
2022-09-17T12:26:00.473Z,28.32
2022-09-17T12:31:14.799Z,28.16
2022-09-17T12:36:45.267Z,28.04
2022-09-17T12:42:11.602Z,27.83
2022-09-17T12:47:34.806Z,27.64
2022-09-17T12:52:58.517Z,27.64
2022-09-17T12:58:26.630Z,27.69
2022-09-17T13:03:37.708Z,27.67
2022-09-17T13:08:45.470Z,27.56
2022-09-17T13:13:55.604Z,27.46
2022-09-17T13:19:22.223Z,27.47
2022-09-17T13:24:29.415Z,27.47
2022-09-17T13:29:44.983Z,27.43
2022-09-17T13:39:57.305Z,27.31
2022-09-17T13:45:03.493Z,27.27
2022-09-17T13:50:24.560Z,27.18
2022-09-17T13:55:35.746Z,27.07
2022-09-17T14:01:02.242Z,27.02
2022-09-17T14:06:06.685Z,26.96
2022-09-17T14:11:30.434Z,26.90
2022-09-17T14:16:57.030Z,26.83
2022-09-17T14:22:12.691Z,26.78
2022-09-17T14:27:38.651Z,26.73
2022-09-17T14:32:46.135Z,26.66
2022-09-17T14:37:56.278Z,26.53
2022-09-17T14:43:03.358Z,26.46
2022-09-17T14:48:24.931Z,26.43
2022-09-17T14:53:28.196Z,26.35
2022-09-17T14:58:35.316Z,26.30
2022-09-17T15:03:38.765Z,26.27
2022-09-17T15:08:45.887Z,26.22
2022-09-17T15:13:53.351Z,26.16
2022-09-17T15:18:59.965Z,26.08
2022-09-17T15:24:28.961Z,26.00
2022-09-17T15:29:34.715Z,25.85
2022-09-17T15:34:38.113Z,25.77
2022-09-17T15:39:43.235Z,25.67
2022-09-17T15:44:47.209Z,25.56
2022-09-17T15:50:14.407Z,25.49
2022-09-17T15:55:28.167Z,25.41
2022-09-17T16:00:31.737Z,25.32
2022-09-17T16:05:47.360Z,25.29
2022-09-17T16:10:50.798Z,25.26
2022-09-17T16:15:54.772Z,25.23
2022-09-17T16:20:58.847Z,25.20
2022-09-17T16:26:02.502Z,25.16
2022-09-17T16:31:06.849Z,25.13
2022-09-17T16:36:11.642Z,25.10
2022-09-17T16:41:15.164Z,25.07
2022-09-17T16:46:18.722Z,25.06
2022-09-17T16:51:22.081Z,25.02
2022-09-17T16:56:25.325Z,25.01
2022-09-17T17:01:29.177Z,25.00
2022-09-17T17:06:32.719Z,24.98
2022-09-17T17:11:36.153Z,24.95
2022-09-17T17:16:40.215Z,24.92
2022-09-17T17:21:47.282Z,24.90
2022-09-17T17:26:50.686Z,24.89
2022-09-17T17:31:54.203Z,24.88
2022-09-17T17:36:59.453Z,24.86
2022-09-17T17:42:03.089Z,24.84
2022-09-17T17:47:06.719Z,24.83
2022-09-17T17:52:10.521Z,24.83
2022-09-17T17:57:14.156Z,24.81
2022-09-17T18:02:17.781Z,24.81
2022-09-17T18:07:21.293Z,24.78
2022-09-17T18:12:26.927Z,24.76
2022-09-17T18:17:31.094Z,24.73
2022-09-17T18:22:34.341Z,24.73
2022-09-17T18:27:40.404Z,24.72
2022-09-17T18:32:44.296Z,24.71
2022-09-17T18:37:48.065Z,24.69
2022-09-17T18:42:52.404Z,24.71
2022-09-17T18:47:55.868Z,24.72
2022-09-17T18:52:59.200Z,24.70
2022-09-17T18:58:02.677Z,24.68
2022-09-17T19:03:06.530Z,24.67
2022-09-17T19:08:13.779Z,24.68
2022-09-17T19:13:20.764Z,24.73
2022-09-17T19:18:24.101Z,24.81
2022-09-17T19:23:27.505Z,24.81
2022-09-17T19:28:30.620Z,24.81
2022-09-17T19:33:33.983Z,24.82
2022-09-17T19:38:37.639Z,24.78
2022-09-17T19:43:44.688Z,24.74
2022-09-17T19:48:53.385Z,24.73
2022-09-17T19:53:57.052Z,24.71
2022-09-17T19:59:00.300Z,24.71
2022-09-17T20:04:03.780Z,24.72
2022-09-17T20:09:12.290Z,24.73
2022-09-17T20:14:16.178Z,24.77
2022-09-17T20:19:19.700Z,24.79
2022-09-17T20:24:23.079Z,24.79
2022-09-17T20:29:27.873Z,24.85
2022-09-17T20:34:34.588Z,24.87
2022-09-17T20:39:38.006Z,24.85
2022-09-17T20:44:41.532Z,24.85
2022-09-17T20:49:44.901Z,24.84
2022-09-17T20:54:48.937Z,24.78
2022-09-17T20:59:52.505Z,24.74
2022-09-17T21:04:56.154Z,24.72
2022-09-17T21:09:59.944Z,24.69
2022-09-17T21:15:03.363Z,24.67
2022-09-17T21:20:07.595Z,24.66
2022-09-17T21:25:10.975Z,24.61
2022-09-17T21:30:14.996Z,24.55
2022-09-17T21:35:18.422Z,24.51
2022-09-17T21:40:22.396Z,24.48
2022-09-17T21:45:25.872Z,24.45
2022-09-17T21:50:29.311Z,24.44
2022-09-17T21:55:32.798Z,24.48
2022-09-17T22:00:39.746Z,24.53
2022-09-17T22:05:46.817Z,24.51
2022-09-17T22:10:50.681Z,24.51
2022-09-17T22:15:59.404Z,24.50
2022-09-17T22:21:36.348Z,24.49
2022-09-17T22:26:42.340Z,24.46
2022-09-17T22:31:47.097Z,24.46
2022-09-17T22:36:50.953Z,24.43
2022-09-17T22:41:54.898Z,24.39
2022-09-17T22:46:58.526Z,24.39
2022-09-17T22:52:02.128Z,24.40
2022-09-17T22:57:05.808Z,24.41
2022-09-17T23:02:09.745Z,24.45
2022-09-17T23:07:13.300Z,24.44
2022-09-17T23:12:17.293Z,24.43
2022-09-17T23:17:20.862Z,24.46
2022-09-17T23:22:24.458Z,24.46
2022-09-17T23:27:28.371Z,24.44
2022-09-17T23:32:31.610Z,24.43
2022-09-17T23:37:34.920Z,24.46
2022-09-17T23:42:38.131Z,24.42
2022-09-17T23:47:41.502Z,24.39
2022-09-17T23:52:45.197Z,24.34
2022-09-17T23:57:48.634Z,24.32
